createdAt,value
2018-12-21T00:01:06.083Z,1.65
2018-12-21T00:02:11.954Z,1.37
2018-12-21T00:03:18.132Z,1.22
2018-12-21T00:04:24.107Z,1.40
2018-12-21T00:05:30.605Z,1.67
2018-12-21T00:06:37.895Z,1.87
2018-12-21T00:07:44.031Z,2.02
2018-12-21T00:08:49.125Z,2.12
2018-12-21T00:09:54.979Z,1.62
2018-12-21T00:11:01.150Z,1.55
2018-12-21T00:12:07.637Z,1.30
2018-12-21T00:13:14.117Z,1.55
2018-12-21T00:14:20.597Z,2.02
2018-12-21T00:15:27.007Z,1.55
2018-12-21T00:16:32.807Z,1.40
2018-12-21T00:17:41.623Z,1.40
2018-12-21T00:18:47.607Z,1.20
2018-12-21T00:19:53.844Z,1.17
2018-12-21T00:21:00.286Z,1.87
2018-12-21T00:22:06.626Z,1.15
2018-12-21T00:23:12.461Z,1.22
2018-12-21T00:24:18.546Z,0.95
2018-12-21T00:25:24.738Z,1.47
2018-12-21T00:26:30.728Z,1.25
2018-12-21T00:27:36.928Z,0.98
2018-12-21T00:28:43.187Z,1.27
2018-12-21T00:29:48.895Z,1.90
2018-12-21T00:31:00.089Z,1.20
2018-12-21T00:32:11.298Z,1.57
2018-12-21T00:33:23.068Z,0.85
2018-12-21T00:34:34.439Z,1.22
2018-12-21T00:35:46.059Z,1.30
2018-12-21T00:36:57.788Z,1.60
2018-12-21T00:38:09.359Z,1.50
2018-12-21T00:39:20.610Z,1.60
2018-12-21T00:40:31.817Z,1.35
2018-12-21T00:41:37.211Z,1.40
2018-12-21T00:42:47.813Z,1.32
2018-12-21T00:43:56.572Z,1.30
2018-12-21T00:45:07.149Z,1.32
2018-12-21T00:46:15.459Z,1.92
2018-12-21T00:47:21.419Z,1.60
2018-12-21T00:48:27.838Z,0.93
2018-12-21T00:49:33.697Z,1.05
2018-12-21T00:50:39.699Z,1.00
2018-12-21T00:51:45.712Z,1.02
2018-12-21T00:52:51.762Z,0.82
2018-12-21T00:53:58.173Z,0.80
2018-12-21T00:55:04.418Z,0.90
2018-12-21T00:56:10.656Z,0.75
2018-12-21T00:57:17.066Z,0.80
2018-12-21T00:58:23.272Z,1.10
2018-12-21T00:59:29.421Z,0.95
2018-12-21T01:00:35.704Z,1.00
2018-12-21T01:01:42.040Z,0.85
2018-12-21T01:02:48.687Z,0.90
2018-12-21T01:03:54.738Z,1.17
2018-12-21T01:05:01.219Z,0.90
2018-12-21T01:06:07.618Z,0.88
2018-12-21T01:07:14.071Z,0.90
2018-12-21T01:08:20.491Z,1.40
2018-12-21T01:09:26.663Z,1.00
2018-12-21T01:10:32.907Z,1.10
2018-12-21T01:11:39.247Z,0.90
2018-12-21T01:12:45.275Z,1.17
2018-12-21T01:13:51.705Z,0.70
2018-12-21T01:14:57.556Z,0.85
2018-12-21T01:16:03.718Z,0.78
2018-12-21T01:17:09.830Z,0.80
2018-12-21T01:18:15.944Z,1.37
2018-12-21T01:19:21.739Z,0.62
2018-12-21T01:20:27.867Z,1.10
2018-12-21T01:21:38.672Z,0.90
2018-12-21T01:22:43.145Z,0.85
2018-12-21T01:23:50.194Z,1.87
2018-12-21T01:24:56.482Z,0.50
2018-12-21T01:26:02.910Z,0.60
2018-12-21T01:27:08.765Z,0.70
2018-12-21T01:28:14.665Z,0.85
2018-12-21T01:29:21.017Z,0.85
2018-12-21T01:30:30.386Z,0.50
2018-12-21T01:31:36.305Z,0.72
2018-12-21T01:32:42.345Z,0.90
2018-12-21T01:33:49.153Z,0.80
2018-12-21T01:34:55.829Z,0.90
2018-12-21T01:36:01.983Z,0.60
2018-12-21T01:37:09.013Z,1.10
2018-12-21T01:38:14.959Z,0.62
2018-12-21T01:39:23.101Z,0.70
2018-12-21T01:40:29.477Z,0.75
2018-12-21T01:41:36.035Z,1.00
2018-12-21T01:42:42.345Z,0.90
2018-12-21T01:43:48.295Z,0.75
2018-12-21T01:44:54.492Z,0.70
2018-12-21T01:46:00.231Z,0.72
2018-12-21T01:47:06.830Z,1.10
2018-12-21T01:48:13.174Z,0.85
2018-12-21T01:49:19.131Z,1.02
2018-12-21T01:50:25.458Z,0.80
2018-12-21T01:51:31.302Z,0.88
2018-12-21T01:52:37.787Z,0.75
2018-12-21T01:53:44.136Z,0.60
2018-12-21T01:54:50.421Z,0.82
2018-12-21T01:55:56.502Z,0.90
2018-12-21T01:57:02.274Z,1.10
2018-12-21T01:58:08.429Z,0.72
2018-12-21T01:59:14.478Z,0.90
2018-12-21T02:00:20.528Z,0.65
2018-12-21T02:01:26.662Z,0.55
2018-12-21T02:02:32.705Z,0.60
2018-12-21T02:03:38.925Z,1.00
2018-12-21T02:04:45.271Z,0.70
2018-12-21T02:05:51.330Z,0.78
2018-12-21T02:06:57.384Z,0.95
2018-12-21T02:08:03.403Z,0.85
2018-12-21T02:09:10.166Z,0.75
2018-12-21T02:10:16.381Z,0.93
2018-12-21T02:11:22.409Z,0.90
2018-12-21T02:12:28.679Z,1.10
2018-12-21T02:13:35.001Z,0.75
2018-12-21T02:14:41.223Z,1.00
2018-12-21T02:15:47.140Z,0.70
2018-12-21T02:16:53.282Z,0.93
2018-12-21T02:17:59.141Z,1.05
2018-12-21T02:19:05.331Z,0.70
2018-12-21T02:20:11.565Z,0.78
2018-12-21T02:21:17.442Z,0.80
2018-12-21T02:22:23.952Z,1.10
2018-12-21T02:23:29.887Z,0.78
2018-12-21T02:24:36.108Z,0.88
2018-12-21T02:25:42.080Z,1.05
2018-12-21T02:26:48.253Z,0.93
2018-12-21T02:27:54.171Z,1.07
2018-12-21T02:29:00.704Z,0.70
2018-12-21T02:30:07.995Z,0.80
2018-12-21T02:31:13.474Z,0.60
2018-12-21T02:32:19.782Z,0.85
2018-12-21T02:33:25.943Z,1.12
2018-12-21T02:34:31.996Z,0.82
2018-12-21T02:35:38.231Z,0.82
2018-12-21T02:36:44.356Z,1.12
2018-12-21T02:37:50.268Z,0.80
2018-12-21T02:38:56.544Z,0.80
2018-12-21T02:40:03.091Z,0.70
2018-12-21T02:41:09.459Z,0.75
2018-12-21T02:42:15.519Z,0.90
2018-12-21T02:43:21.730Z,1.00
2018-12-21T02:44:27.798Z,1.10
2018-12-21T02:45:33.889Z,1.00
2018-12-21T02:46:40.843Z,1.02
2018-12-21T02:47:47.346Z,0.75
2018-12-21T02:48:53.360Z,0.70
2018-12-21T02:49:59.621Z,0.70
2018-12-21T02:51:05.719Z,0.72
2018-12-21T02:52:11.700Z,0.80
2018-12-21T02:53:17.959Z,0.78
2018-12-21T02:54:24.031Z,1.30
2018-12-21T02:55:30.353Z,0.62
2018-12-21T02:56:36.579Z,0.50
2018-12-21T02:57:42.863Z,0.75
2018-12-21T02:58:48.905Z,0.65
2018-12-21T02:59:54.947Z,0.95
2018-12-21T03:01:00.987Z,0.82
2018-12-21T03:02:06.729Z,1.00
2018-12-21T03:03:13.188Z,0.85
2018-12-21T03:04:19.535Z,1.10
2018-12-21T03:05:25.882Z,0.70
2018-12-21T03:06:32.006Z,0.60
2018-12-21T03:07:37.817Z,0.80
2018-12-21T03:08:44.154Z,0.93
2018-12-21T03:09:49.984Z,0.70
2018-12-21T03:10:55.861Z,1.00
2018-12-21T03:12:01.974Z,0.80
2018-12-21T03:13:08.868Z,0.62
2018-12-21T03:14:15.378Z,0.60
2018-12-21T03:15:21.446Z,0.80
2018-12-21T03:16:28.094Z,0.88
2018-12-21T03:17:34.414Z,0.93
2018-12-21T03:18:41.306Z,0.60
2018-12-21T03:19:47.659Z,0.60
2018-12-21T03:20:53.297Z,1.07
2018-12-21T03:21:59.175Z,0.72
2018-12-21T03:23:03.741Z,0.42
2018-12-21T03:24:08.915Z,1.10
2018-12-21T03:25:14.960Z,0.70
2018-12-21T03:26:21.279Z,0.70
2018-12-21T03:27:28.931Z,0.88
2018-12-21T03:28:35.194Z,0.75
2018-12-21T03:29:42.357Z,0.78
2018-12-21T03:30:48.483Z,1.00
2018-12-21T03:31:54.661Z,0.78
2018-12-21T03:33:01.294Z,0.50
2018-12-21T03:34:07.663Z,0.82
2018-12-21T03:35:13.831Z,0.53
2018-12-21T03:36:20.085Z,1.00
2018-12-21T03:37:26.114Z,1.00
2018-12-21T03:38:32.641Z,0.70
2018-12-21T03:39:38.765Z,0.70
2018-12-21T03:40:45.000Z,0.93
2018-12-21T03:41:51.247Z,1.02
2018-12-21T03:42:57.090Z,0.70
2018-12-21T03:44:02.995Z,0.78
2018-12-21T03:45:09.337Z,0.60
2018-12-21T03:46:15.632Z,0.75
2018-12-21T03:47:21.923Z,0.90
2018-12-21T03:48:28.090Z,0.70
2018-12-21T03:49:33.979Z,0.70
2018-12-21T03:50:39.971Z,0.75
2018-12-21T03:51:46.509Z,0.68
2018-12-21T03:52:52.207Z,0.95
2018-12-21T03:53:58.598Z,0.85
2018-12-21T03:55:04.861Z,0.78
2018-12-21T03:56:10.721Z,0.72
2018-12-21T03:57:17.021Z,0.88
2018-12-21T03:58:22.860Z,0.80
2018-12-21T03:59:29.389Z,0.88
2018-12-21T04:00:35.429Z,0.70
2018-12-21T04:01:41.826Z,0.90
2018-12-21T04:02:48.190Z,0.80
2018-12-21T04:03:54.304Z,0.60
2018-12-21T04:05:00.797Z,0.75
2018-12-21T04:06:07.154Z,0.60
2018-12-21T04:07:13.591Z,0.68
2018-12-21T04:08:20.620Z,0.80
2018-12-21T04:09:26.413Z,0.75
2018-12-21T04:10:33.368Z,0.78
2018-12-21T04:11:40.978Z,1.00
2018-12-21T04:12:47.199Z,0.80
2018-12-21T04:13:54.114Z,0.60
2018-12-21T04:15:00.617Z,0.88
2018-12-21T04:16:06.715Z,1.02
2018-12-21T04:17:12.821Z,1.00
2018-12-21T04:18:18.853Z,0.95
2018-12-21T04:19:24.902Z,0.60
2018-12-21T04:20:30.879Z,0.70
2018-12-21T04:21:36.970Z,0.62
2018-12-21T04:22:43.290Z,1.07
2018-12-21T04:23:49.219Z,1.37
2018-12-21T04:24:55.203Z,0.75
2018-12-21T04:26:01.385Z,0.80
2018-12-21T04:27:07.765Z,0.80
2018-12-21T04:28:13.784Z,1.10
2018-12-21T04:29:20.157Z,0.90
2018-12-21T04:30:26.503Z,0.80
2018-12-21T04:31:33.070Z,0.55
2018-12-21T04:32:40.250Z,1.00
2018-12-21T04:33:46.316Z,0.60
2018-12-21T04:34:53.029Z,1.27
2018-12-21T04:35:59.721Z,1.22
2018-12-21T04:37:05.930Z,0.68
2018-12-21T04:38:12.106Z,0.90
2018-12-21T04:39:18.426Z,0.60
2018-12-21T04:40:24.263Z,0.78
2018-12-21T04:41:30.367Z,0.62
2018-12-21T04:42:36.851Z,0.88
2018-12-21T04:43:42.844Z,0.90
2018-12-21T04:44:49.043Z,0.78
2018-12-21T04:45:54.972Z,1.00
2018-12-21T04:47:01.100Z,1.00
2018-12-21T04:48:07.488Z,1.07
2018-12-21T04:49:13.603Z,0.90
2018-12-21T04:50:20.339Z,0.98
2018-12-21T04:51:26.366Z,0.90
2018-12-21T04:52:32.494Z,1.00
2018-12-21T04:53:38.839Z,1.30
2018-12-21T04:54:45.505Z,1.12
2018-12-21T04:55:52.024Z,0.42
2018-12-21T04:56:58.340Z,0.93
2018-12-21T04:58:04.590Z,0.90
2018-12-21T04:59:11.064Z,0.90
2018-12-21T05:00:17.412Z,0.70
2018-12-21T05:01:23.461Z,0.70
2018-12-21T05:02:29.859Z,0.78
2018-12-21T05:03:36.205Z,0.95
2018-12-21T05:04:42.417Z,1.12
2018-12-21T05:05:48.562Z,0.75
2018-12-21T05:06:54.919Z,0.70
2018-12-21T05:08:00.584Z,0.75
2018-12-21T05:09:07.177Z,0.70
2018-12-21T05:10:13.412Z,1.00
2018-12-21T05:11:19.675Z,0.70
2018-12-21T05:12:26.013Z,1.20
2018-12-21T05:13:32.681Z,0.95
2018-12-21T05:14:38.817Z,0.60
2018-12-21T05:15:44.931Z,0.60
2018-12-21T05:16:51.437Z,0.60
2018-12-21T05:17:57.929Z,0.70
2018-12-21T05:19:03.780Z,0.62
2018-12-21T05:20:10.078Z,0.72
2018-12-21T05:21:16.424Z,0.80
2018-12-21T05:22:22.446Z,0.80
2018-12-21T05:23:28.999Z,1.00
2018-12-21T05:24:35.225Z,1.00
2018-12-21T05:25:41.315Z,0.90
2018-12-21T05:26:47.901Z,1.52
2018-12-21T05:27:54.083Z,0.85
2018-12-21T05:29:00.163Z,1.10
2018-12-21T05:30:08.450Z,1.15
2018-12-21T05:31:15.463Z,1.00
2018-12-21T05:32:21.622Z,1.30
2018-12-21T05:33:28.072Z,0.98
2018-12-21T05:34:35.453Z,1.20
2018-12-21T05:35:41.600Z,0.70
2018-12-21T05:36:47.599Z,0.70
2018-12-21T05:37:53.909Z,0.90
2018-12-21T05:39:00.145Z,0.80
2018-12-21T05:40:06.736Z,1.05
2018-12-21T05:41:12.621Z,0.88
2018-12-21T05:42:18.849Z,0.88
2018-12-21T05:43:24.853Z,1.00
2018-12-21T05:44:30.902Z,1.17
2018-12-21T05:45:37.059Z,0.80
2018-12-21T05:46:43.072Z,1.27
2018-12-21T05:47:48.992Z,1.30
2018-12-21T05:48:55.059Z,0.85
2018-12-21T05:50:00.887Z,1.05
2018-12-21T05:51:07.410Z,0.95
2018-12-21T05:52:13.798Z,1.47
2018-12-21T05:53:19.794Z,1.00
2018-12-21T05:54:26.102Z,0.98
2018-12-21T05:55:32.823Z,1.47
2018-12-21T05:56:38.703Z,1.32
2018-12-21T05:57:45.194Z,0.85
2018-12-21T05:58:51.260Z,0.82
2018-12-21T05:59:57.453Z,1.20
2018-12-21T06:01:03.798Z,1.35
2018-12-21T06:02:09.831Z,1.45
2018-12-21T06:03:15.955Z,0.90
2018-12-21T06:04:21.933Z,1.02
2018-12-21T06:07:00.786Z,1.40
2018-12-21T06:08:07.010Z,0.90
2018-12-21T06:09:12.808Z,0.72
2018-12-21T06:10:18.536Z,0.65
2018-12-21T06:11:25.036Z,0.78
2018-12-21T06:12:30.833Z,0.60
2018-12-21T06:13:37.133Z,0.60
2018-12-21T06:14:43.433Z,1.20
2018-12-21T06:15:49.425Z,1.10
2018-12-21T06:16:55.624Z,1.30
2018-12-21T06:18:02.099Z,1.00
2018-12-21T06:19:08.403Z,1.17
2018-12-21T06:20:14.393Z,0.90
2018-12-21T06:21:20.414Z,1.20
2018-12-21T06:22:26.424Z,1.10
2018-12-21T06:23:32.753Z,1.05
2018-12-21T06:24:38.845Z,0.80
2018-12-21T06:25:45.044Z,0.85
2018-12-21T06:26:51.192Z,0.93
2018-12-21T06:27:57.307Z,0.60
2018-12-21T06:29:03.423Z,0.72
2018-12-21T06:30:09.802Z,0.70
2018-12-21T06:31:15.635Z,1.00
2018-12-21T06:32:21.529Z,1.20
2018-12-21T06:33:27.463Z,1.15
2018-12-21T06:34:33.677Z,1.00
2018-12-21T06:35:39.704Z,0.98
2018-12-21T06:36:46.037Z,0.80
2018-12-21T06:37:51.943Z,1.17
2018-12-21T06:38:57.652Z,1.05
2018-12-21T06:40:03.768Z,0.82
2018-12-21T06:41:09.789Z,0.88
2018-12-21T06:42:16.078Z,1.15
2018-12-21T06:43:22.316Z,0.80
2018-12-21T06:44:28.794Z,1.37
2018-12-21T06:45:34.952Z,1.30
2018-12-21T06:46:41.234Z,1.20
2018-12-21T06:47:48.070Z,1.40
2018-12-21T06:48:54.402Z,1.17
2018-12-21T06:50:00.276Z,1.30
2018-12-21T06:51:05.851Z,0.90
2018-12-21T06:52:12.142Z,0.90
2018-12-21T06:53:18.312Z,1.17
2018-12-21T06:54:24.637Z,0.82
2018-12-21T06:55:30.593Z,1.40
2018-12-21T06:56:37.154Z,1.40
2018-12-21T06:57:43.797Z,1.60
2018-12-21T06:58:49.585Z,0.65
2018-12-21T06:59:55.535Z,1.80
2018-12-21T07:01:01.860Z,0.60
2018-12-21T07:02:08.075Z,1.10
2018-12-21T07:03:17.154Z,0.60
2018-12-21T07:04:22.746Z,0.85
2018-12-21T07:05:28.826Z,1.20
2018-12-21T07:06:34.874Z,1.00
2018-12-21T07:07:40.968Z,0.80
2018-12-21T07:08:47.236Z,1.22
2018-12-21T07:09:53.584Z,1.10
2018-12-21T07:10:59.701Z,0.98
2018-12-21T07:12:06.071Z,1.20
2018-12-21T07:13:12.343Z,1.07
2018-12-21T07:14:18.521Z,1.17
2018-12-21T07:15:24.052Z,1.90
2018-12-21T07:16:30.223Z,1.50
2018-12-21T07:17:36.125Z,1.42
2018-12-21T07:18:42.169Z,1.05
2018-12-21T07:19:48.442Z,1.02
2018-12-21T07:20:54.351Z,1.40
2018-12-21T07:22:00.240Z,1.37
2018-12-21T07:23:06.012Z,1.15
2018-12-21T07:24:11.744Z,0.93
2018-12-21T07:25:17.873Z,1.87
2018-12-21T07:26:24.608Z,1.60
2018-12-21T07:27:30.739Z,1.22
2018-12-21T07:28:37.530Z,1.55
2018-12-21T07:29:43.935Z,1.45
2018-12-21T07:30:49.993Z,1.20
2018-12-21T07:31:56.153Z,1.60
2018-12-21T07:33:02.385Z,1.30
2018-12-21T07:34:08.724Z,1.67
2018-12-21T07:35:15.127Z,2.10
2018-12-21T07:36:21.359Z,1.20
2018-12-21T07:37:27.576Z,1.65
2018-12-21T07:38:33.661Z,1.95
2018-12-21T07:39:39.688Z,1.15
2018-12-21T07:40:46.197Z,1.40
2018-12-21T07:41:52.238Z,1.60
2018-12-21T07:42:58.410Z,1.37
2018-12-21T07:44:04.702Z,2.02
2018-12-21T07:45:11.822Z,2.10
2018-12-21T07:46:17.934Z,1.12
2018-12-21T07:47:23.909Z,1.32
2018-12-21T07:48:30.236Z,1.50
2018-12-21T07:49:36.451Z,1.45
2018-12-21T07:50:42.676Z,1.67
2018-12-21T07:51:48.900Z,1.22
2018-12-21T07:52:54.201Z,1.25
2018-12-21T07:53:59.934Z,1.32
2018-12-21T07:55:06.673Z,0.85
2018-12-21T07:56:12.943Z,1.37
2018-12-21T07:57:17.991Z,1.25
2018-12-21T07:58:23.577Z,1.27
2018-12-21T07:59:29.679Z,1.30
2018-12-21T08:00:34.758Z,1.22
2018-12-21T08:01:40.739Z,1.07
2018-12-21T08:02:46.371Z,1.42
2018-12-21T08:03:51.383Z,0.90
2018-12-21T08:04:57.199Z,2.02
2018-12-21T08:06:01.765Z,1.45
2018-12-21T08:07:07.132Z,0.85
2018-12-21T08:08:11.800Z,1.30
2018-12-21T08:09:17.170Z,1.20
2018-12-21T08:10:21.724Z,1.37
2018-12-21T08:11:26.487Z,1.40
2018-12-21T08:13:57.283Z,1.15
2018-12-21T08:15:01.781Z,1.00
2018-12-21T08:16:07.501Z,0.93
2018-12-21T08:17:12.095Z,1.25
2018-12-21T08:18:16.840Z,1.40
2018-12-21T08:19:22.140Z,1.52
2018-12-21T08:20:27.054Z,1.52
2018-12-21T08:21:31.955Z,0.95
2018-12-21T08:22:37.034Z,1.27
2018-12-21T08:23:44.398Z,1.20
2018-12-21T08:24:49.585Z,1.50
2018-12-21T08:25:54.450Z,1.47
2018-12-21T08:26:59.936Z,1.20
2018-12-21T08:28:04.720Z,1.25
2018-12-21T08:29:09.872Z,1.35
2018-12-21T08:30:14.645Z,0.90
2018-12-21T08:31:19.469Z,1.25
2018-12-21T08:32:24.584Z,1.10
2018-12-21T08:33:30.841Z,0.80
2018-12-21T08:34:37.144Z,1.67
2018-12-21T08:35:43.209Z,1.07
2018-12-21T08:36:48.969Z,1.37
2018-12-21T08:37:55.120Z,2.05
2018-12-21T08:39:00.884Z,2.52
2018-12-21T08:40:08.852Z,2.62
2018-12-21T08:41:14.550Z,2.20
2018-12-21T08:42:20.416Z,1.70
2018-12-21T08:43:28.046Z,1.00
2018-12-21T08:44:33.654Z,1.02
2018-12-21T08:45:39.620Z,1.10
2018-12-21T08:46:45.363Z,1.20
2018-12-21T08:47:51.503Z,1.12
2018-12-21T08:48:57.983Z,1.17
2018-12-21T08:50:04.164Z,0.90
2018-12-21T08:51:09.673Z,0.88
2018-12-21T08:52:15.391Z,1.42
2018-12-21T08:53:21.180Z,1.02
2018-12-21T08:54:27.221Z,1.10
2018-12-21T08:55:33.568Z,1.10
2018-12-21T08:56:39.638Z,0.85
2018-12-21T08:57:45.628Z,1.02
2018-12-21T08:58:52.004Z,1.20
2018-12-21T08:59:57.656Z,0.85
2018-12-21T09:01:03.668Z,1.30
2018-12-21T09:02:10.226Z,2.00
2018-12-21T09:03:15.806Z,1.25
2018-12-21T09:04:21.847Z,1.22
2018-12-21T09:05:27.806Z,1.20
2018-12-21T09:06:33.639Z,1.55
2018-12-21T09:07:39.625Z,1.40
2018-12-21T09:08:45.983Z,1.70
2018-12-21T09:09:51.753Z,1.10
2018-12-21T09:10:58.074Z,1.20
2018-12-21T09:12:04.237Z,1.25
2018-12-21T09:13:10.388Z,1.30
2018-12-21T09:14:16.960Z,1.60
2018-12-21T09:15:23.204Z,1.17
2018-12-21T09:16:29.125Z,1.22
2018-12-21T09:17:35.190Z,1.20
2018-12-21T09:18:41.255Z,1.05
2018-12-21T09:19:47.274Z,1.40
2018-12-21T09:20:53.690Z,1.50
2018-12-21T09:21:59.611Z,1.12
2018-12-21T09:23:05.335Z,1.10
2018-12-21T09:24:11.443Z,1.80
2018-12-21T09:25:17.741Z,1.60
2018-12-21T09:26:23.681Z,1.80
2018-12-21T09:27:29.800Z,1.10
2018-12-21T09:28:36.081Z,1.10
2018-12-21T09:29:42.351Z,0.70
2018-12-21T09:30:48.072Z,1.22
2018-12-21T09:31:54.842Z,1.02
2018-12-21T09:33:00.966Z,0.80
2018-12-21T09:34:06.982Z,1.05
2018-12-21T09:35:12.362Z,0.95
2018-12-21T09:36:18.032Z,0.75
2018-12-21T09:37:23.912Z,1.10
2018-12-21T09:38:29.601Z,0.70
2018-12-21T09:39:35.152Z,1.10
2018-12-21T09:40:41.065Z,0.80
2018-12-21T09:41:48.407Z,0.60
2018-12-21T09:42:54.590Z,0.70
2018-12-21T09:43:59.607Z,0.55
2018-12-21T09:45:05.936Z,0.60
2018-12-21T09:46:12.223Z,0.42
2018-12-21T09:47:18.424Z,0.47
2018-12-21T09:48:25.293Z,0.47
2018-12-21T09:49:31.223Z,0.40
2018-12-21T09:50:37.316Z,1.55
2018-12-21T09:51:45.319Z,2.00
2018-12-21T09:52:51.506Z,1.07
2018-12-21T09:53:58.544Z,0.80
2018-12-21T09:55:05.073Z,0.45
2018-12-21T09:56:11.285Z,0.57
2018-12-21T09:57:17.153Z,0.45
2018-12-21T09:58:22.697Z,0.45
2018-12-21T09:59:28.895Z,0.50
2018-12-21T10:00:35.093Z,0.60
2018-12-21T10:01:41.432Z,0.50
2018-12-21T10:02:47.435Z,0.60
2018-12-21T10:03:53.654Z,0.50
2018-12-21T10:05:00.326Z,0.45
2018-12-21T10:06:06.380Z,0.50
2018-12-21T10:07:12.784Z,0.50
2018-12-21T10:08:19.612Z,0.40
2018-12-21T10:09:25.712Z,0.40
2018-12-21T10:10:32.363Z,0.40
2018-12-21T10:11:38.431Z,0.40
2018-12-21T10:12:44.292Z,0.50
2018-12-21T10:14:00.069Z,0.80
2018-12-21T10:15:08.758Z,0.47
2018-12-21T10:16:24.818Z,0.60
2018-12-21T10:17:34.567Z,0.70
2018-12-21T10:18:46.506Z,0.75
2018-12-21T10:19:59.305Z,0.80
2018-12-21T10:21:04.454Z,0.40
2018-12-21T10:22:22.587Z,0.47
2018-12-21T10:23:28.912Z,0.55
2018-12-21T10:24:35.379Z,0.42
2018-12-21T10:25:52.414Z,0.70
2018-12-21T10:26:59.542Z,0.68
2018-12-21T10:28:17.683Z,0.60
2018-12-21T10:29:23.495Z,0.37
2018-12-21T10:30:32.993Z,0.80
2018-12-21T10:31:47.412Z,1.32
2018-12-21T10:32:53.406Z,1.10
2018-12-21T10:34:10.302Z,0.90
2018-12-21T10:35:17.286Z,0.85
2018-12-21T10:36:25.342Z,0.75
2018-12-21T10:37:42.662Z,0.53
2018-12-21T10:38:48.801Z,1.05
2018-12-21T10:40:07.767Z,0.65
2018-12-21T10:41:13.647Z,0.68
2018-12-21T10:42:33.933Z,0.40
2018-12-21T10:43:46.034Z,0.70
2018-12-21T10:44:59.864Z,0.60
2018-12-21T10:46:05.688Z,0.95
2018-12-21T10:47:15.695Z,0.90
2018-12-21T10:48:29.292Z,0.70
2018-12-21T10:49:34.852Z,0.98
2018-12-21T10:50:41.024Z,0.50
2018-12-21T10:51:58.865Z,0.50
2018-12-21T10:53:05.363Z,0.70
2018-12-21T10:54:26.945Z,0.82
2018-12-21T10:55:45.505Z,0.80
2018-12-21T10:56:51.247Z,0.60
2018-12-21T10:57:57.394Z,0.57
2018-12-21T10:59:21.077Z,0.60
2018-12-21T11:00:25.305Z,2.30
2018-12-21T11:01:43.090Z,0.90
2018-12-21T11:02:47.577Z,1.30
2018-12-21T11:03:52.825Z,0.53
2018-12-21T11:05:11.784Z,0.80
2018-12-21T11:06:18.076Z,1.22
2018-12-21T11:07:27.796Z,1.37
2018-12-21T11:08:42.857Z,0.90
2018-12-21T11:10:50.085Z,0.90
2018-12-21T11:12:07.904Z,0.80
2018-12-21T11:13:14.069Z,0.70
2018-12-21T11:14:19.654Z,1.02
2018-12-21T11:15:37.361Z,0.70
2018-12-21T11:16:43.076Z,1.00
2018-12-21T11:17:51.387Z,1.05
2018-12-21T11:19:06.882Z,0.80
2018-12-21T11:20:13.196Z,0.68
2018-12-21T11:21:30.487Z,0.50
2018-12-21T11:22:37.269Z,0.85
2018-12-21T11:23:42.378Z,0.65
2018-12-21T11:25:00.799Z,0.82
2018-12-21T11:26:07.098Z,0.47
2018-12-21T11:27:13.449Z,0.70
2018-12-21T11:28:30.954Z,0.98
2018-12-21T11:29:36.995Z,0.82
2018-12-21T11:30:56.090Z,0.60
2018-12-21T11:32:02.162Z,0.55
2018-12-21T11:33:10.491Z,0.82
2018-12-21T11:34:27.131Z,1.00
2018-12-21T11:35:34.163Z,0.80
2018-12-21T11:36:51.522Z,1.47
2018-12-21T11:37:57.634Z,1.25
2018-12-21T11:39:15.534Z,0.80
2018-12-21T11:40:21.687Z,0.90
2018-12-21T11:41:27.802Z,1.00
2018-12-21T11:42:45.087Z,1.20
2018-12-21T11:43:51.106Z,0.80
2018-12-21T11:44:57.220Z,1.20
2018-12-21T11:46:02.589Z,1.12
2018-12-21T11:47:07.936Z,0.75
2018-12-21T11:48:13.831Z,0.70
2018-12-21T11:49:19.862Z,1.10
2018-12-21T11:50:26.180Z,0.82
2018-12-21T11:51:32.413Z,1.22
2018-12-21T11:52:38.186Z,1.25
2018-12-21T11:53:44.525Z,0.80
2018-12-21T11:54:50.706Z,1.15
2018-12-21T11:55:56.558Z,1.80
2018-12-21T11:57:02.555Z,1.50
2018-12-21T11:58:08.201Z,1.07
2018-12-21T11:59:13.226Z,0.85
2018-12-21T12:00:18.372Z,1.12
2018-12-21T12:01:24.038Z,1.22
2018-12-21T12:02:29.585Z,1.20
2018-12-21T12:03:36.150Z,1.20
2018-12-21T12:04:41.947Z,1.55
2018-12-21T12:05:47.723Z,1.55
2018-12-21T12:06:53.281Z,1.55
2018-12-21T12:07:58.877Z,2.05
2018-12-21T12:09:06.411Z,1.55
2018-12-21T12:10:12.708Z,1.10
2018-12-21T12:11:18.514Z,0.90
2018-12-21T12:12:24.532Z,1.05
2018-12-21T12:13:30.392Z,1.62
2018-12-21T12:14:36.171Z,1.60
2018-12-21T12:15:42.527Z,1.80
2018-12-21T12:16:48.456Z,1.17
2018-12-21T12:17:53.780Z,1.35
2018-12-21T12:18:59.173Z,0.85
2018-12-21T12:20:05.821Z,1.00
2018-12-21T12:21:12.823Z,1.10
2018-12-21T12:22:19.023Z,1.25
2018-12-21T12:23:25.021Z,0.98
2018-12-21T12:24:31.011Z,1.20
2018-12-21T12:25:36.384Z,1.20
2018-12-21T12:26:44.559Z,1.85
2018-12-21T12:27:49.579Z,1.30
2018-12-21T12:28:55.326Z,1.50
2018-12-21T12:30:00.976Z,1.50
2018-12-21T12:31:07.664Z,1.90
2018-12-21T12:32:13.594Z,1.62
2018-12-21T12:33:19.549Z,1.05
2018-12-21T12:34:25.602Z,1.15
2018-12-21T12:35:31.288Z,1.20
2018-12-21T12:36:37.559Z,1.87
2018-12-21T12:37:43.359Z,1.30
2018-12-21T12:38:48.989Z,1.85
2018-12-21T12:39:53.568Z,1.40
2018-12-21T12:41:06.342Z,1.40
2018-12-21T12:42:07.808Z,1.25
2018-12-21T12:43:14.267Z,0.80
2018-12-21T12:44:21.066Z,1.35
2018-12-21T12:46:38.743Z,1.25
2018-12-21T12:47:45.525Z,1.60
2018-12-21T12:48:52.395Z,0.95
2018-12-21T12:49:58.014Z,1.10
2018-12-21T12:51:04.284Z,1.07
2018-12-21T12:52:10.133Z,1.05
2018-12-21T12:53:16.974Z,1.22
2018-12-21T12:54:23.303Z,0.98
2018-12-21T12:55:28.593Z,1.10
2018-12-21T12:56:34.274Z,0.90
2018-12-21T12:57:39.845Z,0.90
2018-12-21T12:58:45.760Z,0.88
2018-12-21T12:59:51.456Z,1.20
2018-12-21T13:00:57.104Z,0.90
2018-12-21T13:02:02.802Z,1.50
2018-12-21T13:03:08.209Z,0.90
2018-12-21T13:04:14.333Z,1.00
2018-12-21T13:05:20.003Z,1.12
2018-12-21T13:06:25.790Z,1.10
2018-12-21T13:07:31.191Z,0.90
2018-12-21T13:08:38.956Z,1.02
2018-12-21T13:09:44.210Z,0.95
2018-12-21T13:10:49.856Z,1.05
2018-12-21T13:11:55.578Z,0.82
2018-12-21T13:13:00.978Z,1.10
2018-12-21T13:14:06.289Z,1.60
2018-12-21T13:15:11.510Z,1.12
2018-12-21T13:16:17.402Z,1.25
2018-12-21T13:17:23.675Z,1.10
2018-12-21T13:18:30.602Z,1.60
2018-12-21T13:19:36.381Z,1.57
2018-12-21T13:20:41.831Z,1.10
2018-12-21T13:21:47.573Z,3.62
2018-12-21T13:22:53.430Z,2.08
2018-12-21T13:23:59.336Z,1.20
2018-12-21T13:25:11.380Z,1.47
2018-12-21T13:26:13.128Z,1.27
2018-12-21T13:27:19.294Z,0.80
2018-12-21T13:28:25.314Z,0.93
2018-12-21T13:29:31.492Z,1.20
2018-12-21T13:30:37.303Z,1.17
2018-12-21T13:31:43.496Z,1.00
2018-12-21T13:32:48.611Z,1.05
2018-12-21T13:33:54.524Z,1.10
2018-12-21T13:35:00.166Z,0.70
2018-12-21T13:36:05.847Z,1.05
2018-12-21T13:37:12.035Z,0.60
2018-12-21T13:38:17.591Z,0.72
2018-12-21T13:39:23.603Z,0.40
2018-12-21T13:40:30.530Z,0.60
2018-12-21T13:41:35.890Z,0.50
2018-12-21T13:42:42.456Z,0.80
2018-12-21T13:43:48.334Z,0.90
2018-12-21T13:44:55.137Z,0.80
2018-12-21T13:46:01.638Z,0.60
2018-12-21T13:47:07.689Z,0.65
2018-12-21T13:48:13.340Z,0.75
2018-12-21T13:49:19.151Z,0.47
2018-12-21T13:50:25.107Z,0.50
2018-12-21T13:51:31.495Z,0.60
2018-12-21T13:52:37.355Z,0.30
2018-12-21T13:53:42.984Z,0.57
2018-12-21T13:54:48.547Z,0.65
2018-12-21T13:55:54.379Z,0.53
2018-12-21T13:57:00.326Z,0.50
2018-12-21T13:58:06.461Z,0.70
2018-12-21T13:59:11.980Z,0.40
2018-12-21T14:00:17.775Z,0.50
2018-12-21T14:01:24.172Z,0.40
2018-12-21T14:02:30.438Z,0.55
2018-12-21T14:03:36.216Z,0.40
2018-12-21T14:04:41.790Z,0.30
2018-12-21T14:05:47.876Z,0.30
2018-12-21T14:06:53.387Z,0.60
2018-12-21T14:07:59.159Z,0.50
2018-12-21T14:09:07.092Z,0.65
2018-12-21T14:10:12.551Z,0.37
2018-12-21T14:11:18.537Z,0.40
2018-12-21T14:12:23.704Z,0.33
2018-12-21T14:13:29.180Z,0.40
2018-12-21T14:14:35.656Z,0.50
2018-12-21T14:15:41.684Z,0.40
2018-12-21T14:16:47.688Z,0.50
2018-12-21T14:17:52.946Z,0.40
2018-12-21T14:18:58.683Z,0.40
2018-12-21T14:20:07.800Z,0.60
2018-12-21T14:21:13.474Z,0.70
2018-12-21T14:22:19.202Z,0.40
2018-12-21T14:23:25.463Z,0.30
2018-12-21T14:24:31.265Z,0.30
2018-12-21T14:25:37.615Z,0.65
2018-12-21T14:26:43.738Z,0.30
2018-12-21T14:27:50.822Z,0.40
2018-12-21T14:28:57.006Z,0.40
2018-12-21T14:30:02.707Z,0.40
2018-12-21T14:31:09.423Z,0.57
2018-12-21T14:32:16.146Z,0.40
2018-12-21T14:33:21.834Z,0.40
2018-12-21T14:34:28.096Z,0.47
2018-12-21T14:35:34.238Z,0.30
2018-12-21T14:36:40.324Z,0.42
2018-12-21T14:37:46.491Z,0.40
2018-12-21T14:38:52.563Z,0.70
2018-12-21T14:39:58.898Z,0.30
2018-12-21T14:41:05.254Z,0.30
2018-12-21T14:42:11.370Z,0.30
2018-12-21T14:43:17.175Z,0.40
2018-12-21T14:44:23.166Z,0.30
2018-12-21T14:45:29.519Z,0.37
2018-12-21T14:46:35.707Z,0.55
2018-12-21T14:47:41.785Z,0.40
2018-12-21T14:48:47.944Z,0.30
2018-12-21T14:49:53.853Z,0.40
2018-12-21T14:51:00.201Z,0.57
2018-12-21T14:52:06.462Z,0.45
2018-12-21T14:53:12.561Z,0.30